sensor_id;sensor_type;location;lat;lon;timestamp;P1;durP1;ratioP1;P2;durP2;ratioP2
3815;SDS011;1923;48.154;11.536;2024-03-07T00:00:10;18.80;;;10.23;;
3815;SDS011;1923;48.154;11.536;2024-03-07T00:02:44;15.87;;;10.07;;
3815;SDS011;1923;48.154;11.536;2024-03-07T00:05:16;19.50;;;11.37;;
3815;SDS011;1923;48.154;11.536;2024-03-07T00:07:46;16.73;;;10.43;;
3815;SDS011;1923;48.154;11.536;2024-03-07T00:10:14;17.90;;;11.30;;
3815;SDS011;1923;48.154;11.536;2024-03-07T00:12:43;20.37;;;11.10;;
3815;SDS011;1923;48.154;11.536;2024-03-07T00:15:12;21.60;;;11.33;;
3815;SDS011;1923;48.154;11.536;2024-03-07T00:17:41;21.77;;;11.47;;
3815;SDS011;1923;48.154;11.536;2024-03-07T00:20:10;25.13;;;12.40;;
3815;SDS011;1923;48.154;11.536;2024-03-07T00:22:44;22.40;;;11.17;;
3815;SDS011;1923;48.154;11.536;2024-03-07T00:25:11;18.30;;;10.33;;
3815;SDS011;1923;48.154;11.536;2024-03-07T00:27:41;23.30;;;12.80;;
3815;SDS011;1923;48.154;11.536;2024-03-07T00:30:12;24.00;;;12.47;;
3815;SDS011;1923;48.154;11.536;2024-03-07T00:32:45;24.37;;;12.00;;
3815;SDS011;1923;48.154;11.536;2024-03-07T00:35:14;25.50;;;13.00;;
3815;SDS011;1923;48.154;11.536;2024-03-07T00:37:44;25.10;;;14.00;;
3815;SDS011;1923;48.154;11.536;2024-03-07T00:40:12;26.83;;;13.23;;
3815;SDS011;1923;48.154;11.536;2024-03-07T00:42:40;24.10;;;12.87;;
3815;SDS011;1923;48.154;11.536;2024-03-07T00:45:09;30.00;;;13.43;;
3815;SDS011;1923;48.154;11.536;2024-03-07T00:47:38;23.67;;;12.27;;
3815;SDS011;1923;48.154;11.536;2024-03-07T00:50:06;23.83;;;12.70;;
3815;SDS011;1923;48.154;11.536;2024-03-07T00:52:36;25.23;;;13.20;;
3815;SDS011;1923;48.154;11.536;2024-03-07T00:55:07;25.73;;;13.50;;
3815;SDS011;1923;48.154;11.536;2024-03-07T00:57:36;25.53;;;14.43;;
3815;SDS011;1923;48.154;11.536;2024-03-07T01:00:04;24.30;;;11.90;;
3815;SDS011;1923;48.154;11.536;2024-03-07T01:02:38;24.60;;;13.00;;
3815;SDS011;1923;48.154;11.536;2024-03-07T01:05:10;25.23;;;12.97;;
3815;SDS011;1923;48.154;11.536;2024-03-07T01:07:39;26.80;;;12.67;;
3815;SDS011;1923;48.154;11.536;2024-03-07T01:10:10;26.43;;;14.30;;
3815;SDS011;1923;48.154;11.536;2024-03-07T01:12:43;26.97;;;13.63;;
3815;SDS011;1923;48.154;11.536;2024-03-07T01:15:11;24.40;;;13.20;;
3815;SDS011;1923;48.154;11.536;2024-03-07T01:17:41;31.13;;;13.80;;
3815;SDS011;1923;48.154;11.536;2024-03-07T01:20:11;26.20;;;13.07;;
3815;SDS011;1923;48.154;11.536;2024-03-07T01:22:40;25.17;;;13.60;;
3815;SDS011;1923;48.154;11.536;2024-03-07T01:25:08;27.27;;;14.47;;
3815;SDS011;1923;48.154;11.536;2024-03-07T01:27:39;27.63;;;13.77;;
3815;SDS011;1923;48.154;11.536;2024-03-07T01:30:07;27.40;;;14.60;;
3815;SDS011;1923;48.154;11.536;2024-03-07T01:32:36;28.10;;;14.23;;
3815;SDS011;1923;48.154;11.536;2024-03-07T01:35:04;30.70;;;13.87;;
3815;SDS011;1923;48.154;11.536;2024-03-07T01:37:34;33.00;;;13.73;;
3815;SDS011;1923;48.154;11.536;2024-03-07T01:40:03;26.17;;;13.40;;
3815;SDS011;1923;48.154;11.536;2024-03-07T01:42:31;30.00;;;14.77;;
3815;SDS011;1923;48.154;11.536;2024-03-07T01:45:00;28.30;;;15.17;;
3815;SDS011;1923;48.154;11.536;2024-03-07T01:47:28;32.07;;;16.17;;
3815;SDS011;1923;48.154;11.536;2024-03-07T01:49:57;34.80;;;15.97;;
3815;SDS011;1923;48.154;11.536;2024-03-07T01:52:25;33.47;;;14.70;;
3815;SDS011;1923;48.154;11.536;2024-03-07T01:54:53;27.00;;;14.00;;
3815;SDS011;1923;48.154;11.536;2024-03-07T01:57:22;33.93;;;17.13;;
3815;SDS011;1923;48.154;11.536;2024-03-07T01:59:50;32.93;;;16.50;;
3815;SDS011;1923;48.154;11.536;2024-03-07T02:02:20;35.17;;;16.33;;
3815;SDS011;1923;48.154;11.536;2024-03-07T02:04:49;34.00;;;16.17;;
3815;SDS011;1923;48.154;11.536;2024-03-07T02:07:16;31.87;;;14.80;;
3815;SDS011;1923;48.154;11.536;2024-03-07T02:09:44;36.73;;;16.17;;
3815;SDS011;1923;48.154;11.536;2024-03-07T02:12:12;30.67;;;15.80;;
3815;SDS011;1923;48.154;11.536;2024-03-07T02:14:41;37.23;;;15.73;;
3815;SDS011;1923;48.154;11.536;2024-03-07T02:17:09;33.27;;;17.33;;
3815;SDS011;1923;48.154;11.536;2024-03-07T02:19:38;38.70;;;16.83;;
3815;SDS011;1923;48.154;11.536;2024-03-07T02:22:08;31.63;;;17.43;;
3815;SDS011;1923;48.154;11.536;2024-03-07T02:24:36;36.07;;;17.47;;
3815;SDS011;1923;48.154;11.536;2024-03-07T02:27:04;32.73;;;14.90;;
3815;SDS011;1923;48.154;11.536;2024-03-07T02:29:32;38.13;;;18.57;;
3815;SDS011;1923;48.154;11.536;2024-03-07T02:32:00;28.80;;;15.87;;
3815;SDS011;1923;48.154;11.536;2024-03-07T02:34:28;34.77;;;18.57;;
3815;SDS011;1923;48.154;11.536;2024-03-07T02:36:56;42.50;;;17.73;;
3815;SDS011;1923;48.154;11.536;2024-03-07T02:39:25;37.57;;;18.50;;
3815;SDS011;1923;48.154;11.536;2024-03-07T02:41:53;36.77;;;18.10;;
3815;SDS011;1923;48.154;11.536;2024-03-07T02:44:22;42.30;;;18.67;;
3815;SDS011;1923;48.154;11.536;2024-03-07T02:46:50;39.47;;;18.77;;
3815;SDS011;1923;48.154;11.536;2024-03-07T02:49:18;38.93;;;18.93;;
3815;SDS011;1923;48.154;11.536;2024-03-07T02:51:47;37.90;;;17.90;;
3815;SDS011;1923;48.154;11.536;2024-03-07T02:54:15;45.03;;;20.53;;
3815;SDS011;1923;48.154;11.536;2024-03-07T02:56:45;43.57;;;19.07;;
3815;SDS011;1923;48.154;11.536;2024-03-07T02:59:13;34.77;;;17.70;;
3815;SDS011;1923;48.154;11.536;2024-03-07T03:01:41;38.20;;;17.00;;
3815;SDS011;1923;48.154;11.536;2024-03-07T03:04:15;41.40;;;20.10;;
3815;SDS011;1923;48.154;11.536;2024-03-07T03:06:44;42.03;;;20.13;;
3815;SDS011;1923;48.154;11.536;2024-03-07T03:09:12;39.80;;;20.27;;
3815;SDS011;1923;48.154;11.536;2024-03-07T03:11:45;44.53;;;20.70;;
3815;SDS011;1923;48.154;11.536;2024-03-07T03:14:14;40.43;;;19.30;;
3815;SDS011;1923;48.154;11.536;2024-03-07T03:16:42;43.80;;;19.00;;
3815;SDS011;1923;48.154;11.536;2024-03-07T03:19:14;46.93;;;18.87;;
3815;SDS011;1923;48.154;11.536;2024-03-07T03:21:42;40.43;;;19.80;;
3815;SDS011;1923;48.154;11.536;2024-03-07T03:24:10;48.50;;;21.80;;
3815;SDS011;1923;48.154;11.536;2024-03-07T03:26:38;41.63;;;19.70;;
3815;SDS011;1923;48.154;11.536;2024-03-07T03:29:10;43.00;;;21.00;;
3815;SDS011;1923;48.154;11.536;2024-03-07T03:31:40;43.47;;;21.63;;
3815;SDS011;1923;48.154;11.536;2024-03-07T03:34:08;40.40;;;18.07;;
3815;SDS011;1923;48.154;11.536;2024-03-07T03:36:36;44.50;;;19.40;;
3815;SDS011;1923;48.154;11.536;2024-03-07T03:39:05;43.60;;;22.00;;
3815;SDS011;1923;48.154;11.536;2024-03-07T03:41:37;45.30;;;19.90;;
3815;SDS011;1923;48.154;11.536;2024-03-07T03:44:05;50.87;;;23.47;;
3815;SDS011;1923;48.154;11.536;2024-03-07T03:46:35;45.90;;;21.80;;
3815;SDS011;1923;48.154;11.536;2024-03-07T03:49:03;52.37;;;22.97;;
3815;SDS011;1923;48.154;11.536;2024-03-07T03:51:32;52.87;;;24.53;;
3815;SDS011;1923;48.154;11.536;2024-03-07T03:54:00;45.20;;;23.50;;
3815;SDS011;1923;48.154;11.536;2024-03-07T03:56:28;46.00;;;22.50;;
3815;SDS011;1923;48.154;11.536;2024-03-07T03:59:22;47.93;;;23.13;;
3815;SDS011;1923;48.154;11.536;2024-03-07T04:01:52;46.83;;;22.03;;
3815;SDS011;1923;48.154;11.536;2024-03-07T04:04:23;50.63;;;24.20;;
3815;SDS011;1923;48.154;11.536;2024-03-07T04:06:52;50.57;;;23.00;;
3815;SDS011;1923;48.154;11.536;2024-03-07T04:09:20;50.00;;;22.87;;
3815;SDS011;1923;48.154;11.536;2024-03-07T04:11:50;48.07;;;23.10;;
3815;SDS011;1923;48.154;11.536;2024-03-07T04:14:18;51.13;;;23.83;;
3815;SDS011;1923;48.154;11.536;2024-03-07T04:16:46;49.10;;;23.87;;
3815;SDS011;1923;48.154;11.536;2024-03-07T04:19:15;55.97;;;25.30;;
3815;SDS011;1923;48.154;11.536;2024-03-07T04:21:46;55.00;;;24.47;;
3815;SDS011;1923;48.154;11.536;2024-03-07T04:24:14;53.77;;;25.20;;
3815;SDS011;1923;48.154;11.536;2024-03-07T04:26:42;54.93;;;27.53;;
3815;SDS011;1923;48.154;11.536;2024-03-07T04:29:10;53.50;;;24.57;;
3815;SDS011;1923;48.154;11.536;2024-03-07T04:31:38;65.10;;;27.57;;
3815;SDS011;1923;48.154;11.536;2024-03-07T04:34:06;54.37;;;25.80;;
3815;SDS011;1923;48.154;11.536;2024-03-07T04:36:37;57.77;;;25.07;;
3815;SDS011;1923;48.154;11.536;2024-03-07T04:39:05;54.27;;;25.30;;
3815;SDS011;1923;48.154;11.536;2024-03-07T04:41:40;61.10;;;27.20;;
3815;SDS011;1923;48.154;11.536;2024-03-07T04:44:09;56.67;;;27.80;;
3815;SDS011;1923;48.154;11.536;2024-03-07T04:46:37;62.83;;;27.73;;
3815;SDS011;1923;48.154;11.536;2024-03-07T04:49:08;54.57;;;25.57;;
3815;SDS011;1923;48.154;11.536;2024-03-07T04:51:38;64.33;;;28.33;;
3815;SDS011;1923;48.154;11.536;2024-03-07T04:54:07;57.33;;;27.47;;
3815;SDS011;1923;48.154;11.536;2024-03-07T04:56:35;55.43;;;26.87;;
3815;SDS011;1923;48.154;11.536;2024-03-07T04:59:03;59.17;;;26.40;;
3815;SDS011;1923;48.154;11.536;2024-03-07T05:01:31;57.50;;;26.20;;
3815;SDS011;1923;48.154;11.536;2024-03-07T05:03:59;59.27;;;27.87;;
3815;SDS011;1923;48.154;11.536;2024-03-07T05:06:29;66.07;;;29.27;;
3815;SDS011;1923;48.154;11.536;2024-03-07T05:09:01;57.00;;;26.80;;
3815;SDS011;1923;48.154;11.536;2024-03-07T05:11:29;63.90;;;29.90;;
3815;SDS011;1923;48.154;11.536;2024-03-07T05:13:58;64.03;;;28.83;;
3815;SDS011;1923;48.154;11.536;2024-03-07T05:16:27;74.47;;;28.23;;
3815;SDS011;1923;48.154;11.536;2024-03-07T05:18:56;57.70;;;27.67;;
3815;SDS011;1923;48.154;11.536;2024-03-07T05:21:25;55.17;;;25.83;;
3815;SDS011;1923;48.154;11.536;2024-03-07T05:24:05;58.03;;;28.43;;
3815;SDS011;1923;48.154;11.536;2024-03-07T05:26:34;56.00;;;27.40;;
3815;SDS011;1923;48.154;11.536;2024-03-07T05:29:06;59.97;;;28.73;;
3815;SDS011;1923;48.154;11.536;2024-03-07T05:31:35;62.37;;;28.90;;
3815;SDS011;1923;48.154;11.536;2024-03-07T05:34:04;61.33;;;27.73;;
3815;SDS011;1923;48.154;11.536;2024-03-07T05:36:34;64.23;;;28.53;;
3815;SDS011;1923;48.154;11.536;2024-03-07T05:39:02;68.47;;;30.77;;
3815;SDS011;1923;48.154;11.536;2024-03-07T05:41:36;68.67;;;29.03;;
3815;SDS011;1923;48.154;11.536;2024-03-07T05:44:04;64.20;;;28.97;;
3815;SDS011;1923;48.154;11.536;2024-03-07T05:46:35;65.13;;;28.00;;
3815;SDS011;1923;48.154;11.536;2024-03-07T05:49:07;66.83;;;29.20;;
3815;SDS011;1923;48.154;11.536;2024-03-07T05:51:36;60.57;;;29.40;;
3815;SDS011;1923;48.154;11.536;2024-03-07T05:54:05;62.67;;;29.43;;
3815;SDS011;1923;48.154;11.536;2024-03-07T05:56:33;59.20;;;27.63;;
3815;SDS011;1923;48.154;11.536;2024-03-07T05:59:02;59.87;;;29.87;;
3815;SDS011;1923;48.154;11.536;2024-03-07T06:01:32;64.40;;;28.77;;
3815;SDS011;1923;48.154;11.536;2024-03-07T06:04:00;65.90;;;30.17;;
3815;SDS011;1923;48.154;11.536;2024-03-07T06:06:31;64.67;;;30.90;;
3815;SDS011;1923;48.154;11.536;2024-03-07T06:09:00;60.97;;;29.77;;
3815;SDS011;1923;48.154;11.536;2024-03-07T06:11:36;58.37;;;27.40;;
3815;SDS011;1923;48.154;11.536;2024-03-07T06:14:05;66.37;;;30.37;;
3815;SDS011;1923;48.154;11.536;2024-03-07T06:16:35;60.47;;;28.87;;
3815;SDS011;1923;48.154;11.536;2024-03-07T06:19:05;56.90;;;26.77;;
3815;SDS011;1923;48.154;11.536;2024-03-07T06:21:37;58.53;;;28.20;;
3815;SDS011;1923;48.154;11.536;2024-03-07T06:24:07;58.73;;;27.37;;
3815;SDS011;1923;48.154;11.536;2024-03-07T06:26:39;62.00;;;29.00;;
3815;SDS011;1923;48.154;11.536;2024-03-07T06:29:15;73.90;;;31.50;;
3815;SDS011;1923;48.154;11.536;2024-03-07T06:31:45;58.57;;;27.93;;
3815;SDS011;1923;48.154;11.536;2024-03-07T06:34:13;61.07;;;27.83;;
3815;SDS011;1923;48.154;11.536;2024-03-07T06:36:42;60.20;;;28.17;;
3815;SDS011;1923;48.154;11.536;2024-03-07T06:39:10;58.47;;;28.00;;
3815;SDS011;1923;48.154;11.536;2024-03-07T06:41:39;60.60;;;27.80;;
3815;SDS011;1923;48.154;11.536;2024-03-07T06:44:09;65.70;;;29.90;;
3815;SDS011;1923;48.154;11.536;2024-03-07T06:46:37;74.23;;;29.87;;
3815;SDS011;1923;48.154;11.536;2024-03-07T06:49:13;58.30;;;26.80;;
3815;SDS011;1923;48.154;11.536;2024-03-07T06:51:42;62.37;;;27.73;;
3815;SDS011;1923;48.154;11.536;2024-03-07T06:54:10;55.97;;;27.50;;
3815;SDS011;1923;48.154;11.536;2024-03-07T06:56:38;60.83;;;27.23;;
3815;SDS011;1923;48.154;11.536;2024-03-07T06:59:10;59.00;;;27.20;;
3815;SDS011;1923;48.154;11.536;2024-03-07T07:01:39;56.90;;;27.03;;
3815;SDS011;1923;48.154;11.536;2024-03-07T07:04:09;63.33;;;27.20;;
3815;SDS011;1923;48.154;11.536;2024-03-07T07:06:40;64.87;;;28.10;;
3815;SDS011;1923;48.154;11.536;2024-03-07T07:09:09;57.17;;;27.50;;
3815;SDS011;1923;48.154;11.536;2024-03-07T07:11:37;62.00;;;28.30;;
3815;SDS011;1923;48.154;11.536;2024-03-07T07:14:05;60.77;;;28.13;;
3815;SDS011;1923;48.154;11.536;2024-03-07T07:16:33;73.20;;;29.97;;
3815;SDS011;1923;48.154;11.536;2024-03-07T07:19:02;63.20;;;28.20;;
3815;SDS011;1923;48.154;11.536;2024-03-07T07:21:31;73.00;;;29.23;;
3815;SDS011;1923;48.154;11.536;2024-03-07T07:24:00;60.00;;;25.97;;
3815;SDS011;1923;48.154;11.536;2024-03-07T07:26:28;59.90;;;27.37;;
3815;SDS011;1923;48.154;11.536;2024-03-07T07:28:58;54.27;;;26.03;;
3815;SDS011;1923;48.154;11.536;2024-03-07T07:31:26;63.60;;;28.43;;
3815;SDS011;1923;48.154;11.536;2024-03-07T07:33:55;104.73;;;30.40;;
3815;SDS011;1923;48.154;11.536;2024-03-07T07:36:23;55.27;;;26.27;;
3815;SDS011;1923;48.154;11.536;2024-03-07T07:38:55;69.50;;;28.77;;
3815;SDS011;1923;48.154;11.536;2024-03-07T07:41:26;68.50;;;29.37;;
3815;SDS011;1923;48.154;11.536;2024-03-07T07:43:54;55.17;;;26.97;;
3815;SDS011;1923;48.154;11.536;2024-03-07T07:46:23;57.23;;;28.60;;
3815;SDS011;1923;48.154;11.536;2024-03-07T07:48:51;50.27;;;25.67;;
3815;SDS011;1923;48.154;11.536;2024-03-07T07:51:20;61.17;;;27.00;;
3815;SDS011;1923;48.154;11.536;2024-03-07T07:53:47;65.77;;;28.50;;
3815;SDS011;1923;48.154;11.536;2024-03-07T07:56:16;61.93;;;27.77;;
3815;SDS011;1923;48.154;11.536;2024-03-07T07:58:45;57.93;;;26.30;;
3815;SDS011;1923;48.154;11.536;2024-03-07T08:01:13;60.00;;;26.90;;
3815;SDS011;1923;48.154;11.536;2024-03-07T08:03:43;55.23;;;26.00;;
3815;SDS011;1923;48.154;11.536;2024-03-07T08:06:11;58.70;;;26.97;;
3815;SDS011;1923;48.154;11.536;2024-03-07T08:08:39;51.90;;;25.60;;
3815;SDS011;1923;48.154;11.536;2024-03-07T08:11:07;56.13;;;24.77;;
3815;SDS011;1923;48.154;11.536;2024-03-07T08:13:37;54.80;;;25.53;;
3815;SDS011;1923;48.154;11.536;2024-03-07T08:16:06;60.00;;;27.20;;
3815;SDS011;1923;48.154;11.536;2024-03-07T08:18:35;52.50;;;25.23;;
3815;SDS011;1923;48.154;11.536;2024-03-07T08:21:03;55.50;;;26.27;;
3815;SDS011;1923;48.154;11.536;2024-03-07T08:23:31;54.57;;;26.80;;
3815;SDS011;1923;48.154;11.536;2024-03-07T08:25:59;54.27;;;25.37;;
3815;SDS011;1923;48.154;11.536;2024-03-07T08:28:28;56.97;;;26.53;;
3815;SDS011;1923;48.154;11.536;2024-03-07T08:30:56;61.37;;;25.37;;
3815;SDS011;1923;48.154;11.536;2024-03-07T08:33:26;48.60;;;25.13;;
3815;SDS011;1923;48.154;11.536;2024-03-07T08:35:55;59.13;;;26.30;;
3815;SDS011;1923;48.154;11.536;2024-03-07T08:38:23;56.17;;;25.97;;
3815;SDS011;1923;48.154;11.536;2024-03-07T08:40:51;56.67;;;27.03;;
3815;SDS011;1923;48.154;11.536;2024-03-07T08:43:20;54.93;;;26.50;;
3815;SDS011;1923;48.154;11.536;2024-03-07T08:45:58;53.33;;;24.90;;
3815;SDS011;1923;48.154;11.536;2024-03-07T08:48:28;59.70;;;26.23;;
3815;SDS011;1923;48.154;11.536;2024-03-07T08:50:56;57.43;;;26.27;;
3815;SDS011;1923;48.154;11.536;2024-03-07T08:53:24;59.10;;;25.87;;
3815;SDS011;1923;48.154;11.536;2024-03-07T08:55:52;53.70;;;24.90;;
3815;SDS011;1923;48.154;11.536;2024-03-07T08:58:20;57.00;;;25.40;;
3815;SDS011;1923;48.154;11.536;2024-03-07T09:00:48;55.60;;;24.97;;
3815;SDS011;1923;48.154;11.536;2024-03-07T09:03:18;50.07;;;26.00;;
3815;SDS011;1923;48.154;11.536;2024-03-07T09:05:49;52.17;;;24.70;;
3815;SDS011;1923;48.154;11.536;2024-03-07T09:08:18;53.13;;;25.43;;
3815;SDS011;1923;48.154;11.536;2024-03-07T09:10:46;48.70;;;23.37;;
3815;SDS011;1923;48.154;11.536;2024-03-07T09:13:14;54.50;;;24.37;;
3815;SDS011;1923;48.154;11.536;2024-03-07T09:15:43;45.57;;;23.33;;
3815;SDS011;1923;48.154;11.536;2024-03-07T09:18:11;47.10;;;22.80;;
3815;SDS011;1923;48.154;11.536;2024-03-07T09:20:39;43.87;;;21.53;;
3815;SDS011;1923;48.154;11.536;2024-03-07T09:23:09;44.80;;;21.37;;
3815;SDS011;1923;48.154;11.536;2024-03-07T09:25:38;49.00;;;23.20;;
3815;SDS011;1923;48.154;11.536;2024-03-07T09:28:06;51.93;;;22.93;;
3815;SDS011;1923;48.154;11.536;2024-03-07T09:30:34;45.73;;;21.00;;
3815;SDS011;1923;48.154;11.536;2024-03-07T09:33:05;51.00;;;22.70;;
3815;SDS011;1923;48.154;11.536;2024-03-07T09:35:37;41.87;;;20.57;;
3815;SDS011;1923;48.154;11.536;2024-03-07T09:38:06;47.83;;;23.43;;
3815;SDS011;1923;48.154;11.536;2024-03-07T09:40:35;41.77;;;18.90;;
3815;SDS011;1923;48.154;11.536;2024-03-07T09:43:03;45.73;;;21.07;;
3815;SDS011;1923;48.154;11.536;2024-03-07T09:45:33;48.17;;;20.83;;
3815;SDS011;1923;48.154;11.536;2024-03-07T09:48:04;45.63;;;21.20;;
3815;SDS011;1923;48.154;11.536;2024-03-07T09:50:32;41.40;;;19.90;;
3815;SDS011;1923;48.154;11.536;2024-03-07T09:53:01;44.13;;;20.13;;
3815;SDS011;1923;48.154;11.536;2024-03-07T09:55:31;48.50;;;20.57;;
3815;SDS011;1923;48.154;11.536;2024-03-07T09:58:01;43.03;;;20.37;;
3815;SDS011;1923;48.154;11.536;2024-03-07T10:00:33;42.53;;;20.40;;
3815;SDS011;1923;48.154;11.536;2024-03-07T10:03:05;38.30;;;19.93;;
3815;SDS011;1923;48.154;11.536;2024-03-07T10:05:35;38.03;;;19.60;;
3815;SDS011;1923;48.154;11.536;2024-03-07T10:08:05;45.20;;;20.77;;
3815;SDS011;1923;48.154;11.536;2024-03-07T10:10:34;40.97;;;19.67;;
3815;SDS011;1923;48.154;11.536;2024-03-07T10:13:04;37.50;;;18.93;;
3815;SDS011;1923;48.154;11.536;2024-03-07T10:15:35;40.77;;;19.37;;
3815;SDS011;1923;48.154;11.536;2024-03-07T10:18:06;40.70;;;19.87;;
3815;SDS011;1923;48.154;11.536;2024-03-07T10:20:36;40.80;;;18.30;;
3815;SDS011;1923;48.154;11.536;2024-03-07T10:23:06;40.67;;;18.47;;
3815;SDS011;1923;48.154;11.536;2024-03-07T10:25:34;42.43;;;19.93;;
3815;SDS011;1923;48.154;11.536;2024-03-07T10:28:05;40.13;;;18.87;;
3815;SDS011;1923;48.154;11.536;2024-03-07T10:30:40;47.97;;;20.90;;
3815;SDS011;1923;48.154;11.536;2024-03-07T10:33:10;45.77;;;20.93;;
3815;SDS011;1923;48.154;11.536;2024-03-07T10:35:40;41.23;;;19.80;;
3815;SDS011;1923;48.154;11.536;2024-03-07T10:38:08;43.60;;;19.10;;
3815;SDS011;1923;48.154;11.536;2024-03-07T10:40:40;38.60;;;19.30;;
3815;SDS011;1923;48.154;11.536;2024-03-07T10:43:11;43.50;;;20.20;;
3815;SDS011;1923;48.154;11.536;2024-03-07T10:45:43;39.37;;;19.30;;
3815;SDS011;1923;48.154;11.536;2024-03-07T10:48:16;39.80;;;19.17;;
3815;SDS011;1923;48.154;11.536;2024-03-07T10:50:52;45.67;;;21.07;;
3815;SDS011;1923;48.154;11.536;2024-03-07T10:53:29;38.87;;;18.93;;
3815;SDS011;1923;48.154;11.536;2024-03-07T10:56:06;38.20;;;18.40;;
3815;SDS011;1923;48.154;11.536;2024-03-07T10:58:53;41.90;;;20.00;;
3815;SDS011;1923;48.154;11.536;2024-03-07T11:01:33;44.60;;;19.83;;
3815;SDS011;1923;48.154;11.536;2024-03-07T11:04:07;45.97;;;20.47;;
3815;SDS011;1923;48.154;11.536;2024-03-07T11:06:35;34.60;;;17.20;;
3815;SDS011;1923;48.154;11.536;2024-03-07T11:09:03;39.80;;;17.67;;
3815;SDS011;1923;48.154;11.536;2024-03-07T11:11:38;38.23;;;17.80;;
3815;SDS011;1923;48.154;11.536;2024-03-07T11:14:09;35.83;;;18.00;;
3815;SDS011;1923;48.154;11.536;2024-03-07T11:16:39;33.27;;;17.03;;
3815;SDS011;1923;48.154;11.536;2024-03-07T11:19:18;37.40;;;16.90;;
3815;SDS011;1923;48.154;11.536;2024-03-07T11:21:47;39.43;;;17.50;;
3815;SDS011;1923;48.154;11.536;2024-03-07T11:24:25;32.63;;;16.90;;
3815;SDS011;1923;48.154;11.536;2024-03-07T11:26:55;34.83;;;17.20;;
3815;SDS011;1923;48.154;11.536;2024-03-07T11:29:39;34.73;;;17.13;;
3815;SDS011;1923;48.154;11.536;2024-03-07T11:32:13;36.67;;;18.07;;
3815;SDS011;1923;48.154;11.536;2024-03-07T11:34:43;36.87;;;17.13;;
3815;SDS011;1923;48.154;11.536;2024-03-07T11:37:17;36.00;;;17.07;;
3815;SDS011;1923;48.154;11.536;2024-03-07T11:39:49;32.97;;;16.17;;
3815;SDS011;1923;48.154;11.536;2024-03-07T11:42:23;35.23;;;16.67;;
3815;SDS011;1923;48.154;11.536;2024-03-07T11:45:00;34.67;;;17.00;;
3815;SDS011;1923;48.154;11.536;2024-03-07T11:47:35;35.00;;;17.07;;
3815;SDS011;1923;48.154;11.536;2024-03-07T11:50:05;30.40;;;15.80;;
3815;SDS011;1923;48.154;11.536;2024-03-07T11:52:38;35.70;;;17.23;;
3815;SDS011;1923;48.154;11.536;2024-03-07T11:55:08;36.27;;;16.27;;
3815;SDS011;1923;48.154;11.536;2024-03-07T11:57:37;37.23;;;17.10;;
3815;SDS011;1923;48.154;11.536;2024-03-07T12:00:09;33.80;;;16.53;;
3815;SDS011;1923;48.154;11.536;2024-03-07T12:02:38;35.33;;;17.10;;
3815;SDS011;1923;48.154;11.536;2024-03-07T12:05:07;34.63;;;16.80;;
3815;SDS011;1923;48.154;11.536;2024-03-07T12:07:35;34.73;;;17.30;;
3815;SDS011;1923;48.154;11.536;2024-03-07T12:10:04;36.80;;;18.07;;
3815;SDS011;1923;48.154;11.536;2024-03-07T12:12:33;40.40;;;17.50;;
3815;SDS011;1923;48.154;11.536;2024-03-07T12:15:05;32.00;;;15.60;;
3815;SDS011;1923;48.154;11.536;2024-03-07T12:17:42;42.47;;;17.17;;
3815;SDS011;1923;48.154;11.536;2024-03-07T12:20:11;41.83;;;17.67;;
3815;SDS011;1923;48.154;11.536;2024-03-07T12:22:56;38.88;;;17.75;;
3815;SDS011;1923;48.154;11.536;2024-03-07T12:25:28;32.33;;;16.30;;
3815;SDS011;1923;48.154;11.536;2024-03-07T12:28:00;36.07;;;17.60;;
3815;SDS011;1923;48.154;11.536;2024-03-07T12:30:32;39.90;;;18.27;;
3815;SDS011;1923;48.154;11.536;2024-03-07T12:33:03;34.53;;;17.27;;
3815;SDS011;1923;48.154;11.536;2024-03-07T12:35:34;38.03;;;19.17;;
3815;SDS011;1923;48.154;11.536;2024-03-07T12:38:03;34.93;;;16.17;;
3815;SDS011;1923;48.154;11.536;2024-03-07T12:40:31;36.60;;;17.23;;
3815;SDS011;1923;48.154;11.536;2024-03-07T12:43:01;39.27;;;17.10;;
3815;SDS011;1923;48.154;11.536;2024-03-07T12:45:30;29.47;;;16.27;;
3815;SDS011;1923;48.154;11.536;2024-03-07T12:48:00;35.67;;;17.03;;
3815;SDS011;1923;48.154;11.536;2024-03-07T12:50:31;36.07;;;16.13;;
3815;SDS011;1923;48.154;11.536;2024-03-07T12:53:03;37.47;;;18.17;;
3815;SDS011;1923;48.154;11.536;2024-03-07T12:55:32;36.67;;;17.27;;
3815;SDS011;1923;48.154;11.536;2024-03-07T12:58:02;36.03;;;17.20;;
3815;SDS011;1923;48.154;11.536;2024-03-07T13:00:31;29.83;;;15.10;;
3815;SDS011;1923;48.154;11.536;2024-03-07T13:02:59;33.70;;;16.07;;
3815;SDS011;1923;48.154;11.536;2024-03-07T13:05:29;43.73;;;17.53;;
3815;SDS011;1923;48.154;11.536;2024-03-07T13:07:57;33.63;;;16.33;;
3815;SDS011;1923;48.154;11.536;2024-03-07T13:10:25;35.27;;;16.93;;
3815;SDS011;1923;48.154;11.536;2024-03-07T13:12:53;47.37;;;17.93;;
3815;SDS011;1923;48.154;11.536;2024-03-07T13:15:21;40.47;;;17.33;;
3815;SDS011;1923;48.154;11.536;2024-03-07T13:17:50;32.00;;;16.60;;
3815;SDS011;1923;48.154;11.536;2024-03-07T13:20:21;40.00;;;18.77;;
3815;SDS011;1923;48.154;11.536;2024-03-07T13:22:54;36.47;;;16.40;;
3815;SDS011;1923;48.154;11.536;2024-03-07T13:25:23;47.60;;;20.23;;
3815;SDS011;1923;48.154;11.536;2024-03-07T13:27:55;37.10;;;17.47;;
3815;SDS011;1923;48.154;11.536;2024-03-07T13:30:27;35.63;;;16.80;;
3815;SDS011;1923;48.154;11.536;2024-03-07T13:32:55;37.53;;;17.00;;
3815;SDS011;1923;48.154;11.536;2024-03-07T13:35:25;34.93;;;16.70;;
3815;SDS011;1923;48.154;11.536;2024-03-07T13:37:55;31.27;;;16.00;;
3815;SDS011;1923;48.154;11.536;2024-03-07T13:40:24;34.33;;;16.10;;
3815;SDS011;1923;48.154;11.536;2024-03-07T13:42:53;31.20;;;14.57;;
3815;SDS011;1923;48.154;11.536;2024-03-07T13:45:23;28.73;;;15.40;;
3815;SDS011;1923;48.154;11.536;2024-03-07T13:47:53;29.30;;;13.83;;
3815;SDS011;1923;48.154;11.536;2024-03-07T13:50:24;32.47;;;15.03;;
3815;SDS011;1923;48.154;11.536;2024-03-07T13:53:18;31.93;;;14.00;;
3815;SDS011;1923;48.154;11.536;2024-03-07T13:56:00;33.93;;;14.73;;
3815;SDS011;1923;48.154;11.536;2024-03-07T13:58:51;30.90;;;14.90;;
3815;SDS011;1923;48.154;11.536;2024-03-07T14:01:40;32.67;;;14.43;;
3815;SDS011;1923;48.154;11.536;2024-03-07T14:04:37;33.40;;;15.87;;
3815;SDS011;1923;48.154;11.536;2024-03-07T14:07:28;34.40;;;16.37;;
3815;SDS011;1923;48.154;11.536;2024-03-07T14:13:34;34.27;;;15.40;;
3815;SDS011;1923;48.154;11.536;2024-03-07T14:16:27;32.73;;;16.00;;
3815;SDS011;1923;48.154;11.536;2024-03-07T14:19:30;31.87;;;16.10;;
3815;SDS011;1923;48.154;11.536;2024-03-07T14:22:24;35.47;;;16.37;;
3815;SDS011;1923;48.154;11.536;2024-03-07T14:25:11;33.73;;;17.13;;
3815;SDS011;1923;48.154;11.536;2024-03-07T14:28:11;35.63;;;15.73;;
3815;SDS011;1923;48.154;11.536;2024-03-07T14:30:48;33.63;;;15.57;;
3815;SDS011;1923;48.154;11.536;2024-03-07T14:33:22;33.90;;;16.27;;
3815;SDS011;1923;48.154;11.536;2024-03-07T14:35:59;41.90;;;16.77;;
3815;SDS011;1923;48.154;11.536;2024-03-07T14:38:40;37.50;;;18.40;;
3815;SDS011;1923;48.154;11.536;2024-03-07T14:41:15;38.40;;;16.90;;
3815;SDS011;1923;48.154;11.536;2024-03-07T14:43:46;37.57;;;17.67;;
3815;SDS011;1923;48.154;11.536;2024-03-07T14:46:15;33.03;;;16.50;;
3815;SDS011;1923;48.154;11.536;2024-03-07T14:48:44;37.87;;;18.20;;
3815;SDS011;1923;48.154;11.536;2024-03-07T14:51:12;40.33;;;18.83;;
3815;SDS011;1923;48.154;11.536;2024-03-07T14:53:41;34.47;;;17.83;;
3815;SDS011;1923;48.154;11.536;2024-03-07T14:56:10;43.50;;;19.60;;